createdAt,value
2019-05-23T00:01:45.381Z,14.00
2019-05-23T00:04:20.359Z,13.90
2019-05-23T00:06:50.167Z,13.90
2019-05-23T00:09:20.531Z,13.90
2019-05-23T00:12:16.524Z,14.60
2019-05-23T00:14:51.622Z,13.90
2019-05-23T00:17:23.067Z,13.80
2019-05-23T00:19:53.127Z,13.90
2019-05-23T00:22:24.190Z,13.80
2019-05-23T00:24:55.671Z,13.70
2019-05-23T00:27:27.119Z,13.70
2019-05-23T00:29:58.808Z,13.70
2019-05-23T00:32:34.633Z,13.70
2019-05-23T00:35:05.276Z,13.70
2019-05-23T00:37:35.003Z,13.60
2019-05-23T00:40:06.520Z,13.50
2019-05-23T00:42:36.780Z,13.50
2019-05-23T00:45:07.486Z,13.50
2019-05-23T00:47:39.447Z,13.30
2019-05-23T00:50:12.064Z,13.30
2019-05-23T00:52:42.665Z,13.30
2019-05-23T00:55:14.576Z,13.20
2019-05-23T00:57:45.011Z,13.20
2019-05-23T01:00:17.392Z,13.20
2019-05-23T01:02:48.105Z,13.10
2019-05-23T01:05:17.505Z,13.10
2019-05-23T01:07:48.537Z,13.10
2019-05-23T01:10:19.346Z,13.10
2019-05-23T01:12:50.013Z,13.00
2019-05-23T01:15:21.070Z,12.90
2019-05-23T01:17:51.335Z,12.90
2019-05-23T01:20:26.795Z,12.90
2019-05-23T01:22:57.786Z,12.80
2019-05-23T01:25:28.110Z,12.90
2019-05-23T01:27:58.383Z,12.80
2019-05-23T01:30:32.118Z,12.80
2019-05-23T01:33:02.543Z,12.70
2019-05-23T01:35:32.754Z,12.70
2019-05-23T01:38:04.286Z,12.70
2019-05-23T01:40:33.990Z,12.80
2019-05-23T01:43:04.580Z,12.70
2019-05-23T01:45:35.555Z,12.80
2019-05-23T01:48:05.800Z,12.70
2019-05-23T01:50:36.468Z,12.70
2019-05-23T01:53:07.866Z,12.60
2019-05-23T01:55:37.464Z,12.70
2019-05-23T01:58:07.494Z,12.50
2019-05-23T02:00:38.668Z,12.60
2019-05-23T02:03:08.799Z,12.50
2019-05-23T02:05:38.701Z,12.40
2019-05-23T02:08:11.409Z,12.50
2019-05-23T02:10:41.921Z,12.50
2019-05-23T02:13:12.532Z,12.50
2019-05-23T02:15:43.840Z,12.30
2019-05-23T02:18:13.890Z,12.30
2019-05-23T02:20:43.654Z,12.30
2019-05-23T02:23:15.094Z,12.30
2019-05-23T02:25:45.888Z,12.20
2019-05-23T02:28:15.862Z,12.30
2019-05-23T02:30:47.168Z,12.30
2019-05-23T02:33:17.566Z,12.20
2019-05-23T02:35:47.362Z,12.20
2019-05-23T02:38:28.399Z,13.20
2019-05-23T02:41:20.293Z,12.30
2019-05-23T02:43:52.866Z,12.30
2019-05-23T02:46:34.491Z,12.10
2019-05-23T02:49:07.241Z,12.10
2019-05-23T02:51:39.268Z,12.10
2019-05-23T02:54:11.983Z,12.00
2019-05-23T02:56:42.228Z,12.10
2019-05-23T02:59:39.271Z,12.10
2019-05-23T03:02:51.190Z,12.00
2019-05-23T03:05:24.949Z,12.00
2019-05-23T03:07:56.688Z,11.80
2019-05-23T03:10:28.584Z,11.90
2019-05-23T03:12:59.277Z,11.90
2019-05-23T03:15:30.879Z,11.90
2019-05-23T03:18:03.305Z,11.80
2019-05-23T03:20:34.289Z,11.90
2019-05-23T03:23:09.632Z,11.80
2019-05-23T03:26:21.472Z,11.80
2019-05-23T03:28:52.442Z,11.80
2019-05-23T03:31:31.552Z,10.70
2019-05-23T03:33:58.761Z,11.70
2019-05-23T03:36:29.368Z,11.80
2019-05-23T03:38:59.182Z,11.90
2019-05-23T03:41:30.570Z,11.80
2019-05-23T03:44:03.121Z,11.70
2019-05-23T03:46:34.398Z,11.70
2019-05-23T03:49:05.015Z,11.70
2019-05-23T03:51:36.480Z,11.70
2019-05-23T03:54:06.625Z,11.70
2019-05-23T03:56:36.196Z,11.70
2019-05-23T03:59:07.668Z,11.80
2019-05-23T04:01:48.008Z,11.90
2019-05-23T04:04:10.575Z,11.80
2019-05-23T04:06:40.009Z,11.60
2019-05-23T04:09:11.081Z,11.60
2019-05-23T04:11:41.281Z,11.50
2019-05-23T04:14:11.124Z,11.50
2019-05-23T04:16:40.743Z,11.50
2019-05-23T04:19:10.971Z,11.50
2019-05-23T04:21:40.665Z,11.50
2019-05-23T04:24:10.741Z,12.00
2019-05-23T04:26:40.538Z,12.10
2019-05-23T04:29:10.738Z,11.90
2019-05-23T04:31:40.165Z,11.80
2019-05-23T04:34:09.763Z,11.70
2019-05-23T04:36:39.578Z,11.70
2019-05-23T04:39:09.687Z,11.60
2019-05-23T04:41:39.207Z,11.70
2019-05-23T04:44:10.427Z,11.70
2019-05-23T04:46:40.206Z,11.70
2019-05-23T04:49:10.552Z,11.70
2019-05-23T04:51:41.550Z,11.70
2019-05-23T04:54:11.778Z,11.70
2019-05-23T04:56:41.322Z,11.70
2019-05-23T04:59:11.312Z,11.80
2019-05-23T05:01:40.786Z,11.90
2019-05-23T05:04:10.305Z,11.90
2019-05-23T05:06:39.991Z,11.90
2019-05-23T05:09:11.635Z,11.90
2019-05-23T05:11:41.103Z,12.00
2019-05-23T05:14:11.101Z,12.10
2019-05-23T05:16:40.687Z,12.10
2019-05-23T05:19:10.593Z,12.20
2019-05-23T05:21:40.732Z,12.30
2019-05-23T05:24:10.123Z,12.40
2019-05-23T05:26:40.468Z,12.50
2019-05-23T05:29:10.363Z,12.60
2019-05-23T05:31:40.041Z,12.80
2019-05-23T05:34:09.540Z,12.80
2019-05-23T05:36:39.627Z,12.90
2019-05-23T05:39:11.555Z,13.00
2019-05-23T05:41:42.387Z,13.20
2019-05-23T05:44:12.211Z,13.20
2019-05-23T05:46:41.613Z,13.30
2019-05-23T05:49:12.757Z,13.40
2019-05-23T05:51:42.880Z,13.40
2019-05-23T05:54:22.114Z,13.50
2019-05-23T05:57:27.228Z,13.50
2019-05-23T05:59:56.888Z,13.50
2019-05-23T06:02:27.064Z,13.60
2019-05-23T06:04:56.465Z,13.70
2019-05-23T06:07:44.769Z,13.90
2019-05-23T06:10:16.464Z,13.90
2019-05-23T06:12:46.115Z,13.80
2019-05-23T06:15:16.012Z,13.80
2019-05-23T06:17:45.622Z,13.90
2019-05-23T06:20:15.511Z,14.00
2019-05-23T06:22:46.199Z,14.10
2019-05-23T06:25:16.384Z,14.80
2019-05-23T06:27:47.119Z,15.40
2019-05-23T06:30:19.630Z,16.10
2019-05-23T06:32:49.141Z,16.10
2019-05-23T06:35:19.621Z,16.00
2019-05-23T06:37:50.134Z,16.20
2019-05-23T06:40:19.816Z,16.40
2019-05-23T06:42:50.715Z,16.60
2019-05-23T06:45:20.753Z,16.70
2019-05-23T06:47:51.059Z,16.90
2019-05-23T06:50:21.751Z,17.00
2019-05-23T06:52:51.415Z,17.00
2019-05-23T06:55:21.030Z,17.00
2019-05-23T06:57:50.507Z,17.10
2019-05-23T07:00:24.256Z,17.20
2019-05-23T07:02:53.873Z,17.30
2019-05-23T07:05:28.275Z,17.30
2019-05-23T07:07:57.945Z,17.30
2019-05-23T07:10:27.668Z,17.00
2019-05-23T07:12:57.189Z,16.80
2019-05-23T07:15:28.810Z,16.60
2019-05-23T07:17:59.703Z,16.40
2019-05-23T07:20:29.977Z,16.40
2019-05-23T07:22:59.881Z,16.40
2019-05-23T07:25:31.967Z,16.50
2019-05-23T07:28:01.467Z,16.30
2019-05-23T07:30:31.498Z,16.30
2019-05-23T07:33:00.927Z,16.20
2019-05-23T07:35:30.566Z,16.20
2019-05-23T07:38:00.183Z,16.20
2019-05-23T07:40:29.834Z,16.20
2019-05-23T07:42:59.537Z,16.40
2019-05-23T07:45:39.950Z,16.50
2019-05-23T07:48:09.526Z,16.50
2019-05-23T07:50:39.007Z,16.40
2019-05-23T07:53:10.147Z,16.50
2019-05-23T07:55:42.625Z,16.50
2019-05-23T07:58:14.402Z,16.50
2019-05-23T08:00:50.683Z,16.60
2019-05-23T08:03:21.209Z,16.60
2019-05-23T08:05:50.728Z,16.70
2019-05-23T08:08:20.311Z,16.70
2019-05-23T08:10:49.875Z,16.70
2019-05-23T08:13:19.954Z,16.80
2019-05-23T08:15:50.245Z,16.80
2019-05-23T08:18:20.616Z,16.80
2019-05-23T08:20:50.069Z,16.70
2019-05-23T08:23:19.615Z,16.70
2019-05-23T08:25:49.739Z,16.70
2019-05-23T08:28:19.745Z,16.80
2019-05-23T08:30:49.272Z,17.00
2019-05-23T08:33:19.238Z,17.00
2019-05-23T08:35:49.367Z,17.00
2019-05-23T08:38:20.128Z,17.00
2019-05-23T08:40:51.279Z,17.10
2019-05-23T08:43:21.342Z,17.10
2019-05-23T08:45:50.987Z,17.20
2019-05-23T08:48:20.421Z,17.20
2019-05-23T08:50:51.560Z,17.10
2019-05-23T08:53:21.404Z,17.20
2019-05-23T08:55:52.138Z,17.20
2019-05-23T08:58:22.483Z,17.20
2019-05-23T09:00:52.667Z,17.20
2019-05-23T09:03:22.037Z,17.20
2019-05-23T09:05:52.410Z,17.30
2019-05-23T09:08:22.145Z,17.30
2019-05-23T09:10:52.094Z,17.40
2019-05-23T09:13:21.572Z,17.40
2019-05-23T09:15:53.603Z,17.50
2019-05-23T09:18:24.030Z,17.50
2019-05-23T09:20:53.619Z,17.50
2019-05-23T09:23:23.012Z,17.50
2019-05-23T09:25:53.143Z,17.60
2019-05-23T09:28:23.483Z,17.50
2019-05-23T09:30:52.917Z,17.60
2019-05-23T09:33:22.325Z,17.50
2019-05-23T09:35:52.439Z,17.60
2019-05-23T09:38:22.556Z,17.60
2019-05-23T09:40:52.455Z,17.60
2019-05-23T09:43:21.892Z,17.80
2019-05-23T09:45:53.556Z,17.80
2019-05-23T09:48:24.495Z,17.70
2019-05-23T09:50:54.246Z,17.80
2019-05-23T09:53:23.684Z,17.80
2019-05-23T09:55:55.751Z,17.60
2019-05-23T09:58:24.587Z,17.60
2019-05-23T10:00:54.034Z,17.70
2019-05-23T10:03:23.574Z,17.90
2019-05-23T10:05:54.140Z,17.80
2019-05-23T10:08:23.677Z,17.90
2019-05-23T10:10:54.734Z,18.00
2019-05-23T10:13:38.627Z,18.00
2019-05-23T10:16:03.331Z,17.90
2019-05-23T10:18:33.515Z,18.00
2019-05-23T10:21:03.783Z,18.00
2019-05-23T10:23:34.543Z,18.10
2019-05-23T10:26:05.551Z,18.20
2019-05-23T10:28:36.679Z,18.20
2019-05-23T10:31:08.902Z,18.20
2019-05-23T10:33:38.528Z,18.10
2019-05-23T10:36:07.962Z,18.20
2019-05-23T10:38:37.987Z,18.20
2019-05-23T10:41:07.952Z,18.20
2019-05-23T10:43:37.376Z,18.20
2019-05-23T10:46:07.540Z,18.30
2019-05-23T10:48:39.283Z,18.40
2019-05-23T10:51:08.654Z,18.30
2019-05-23T10:53:38.876Z,18.30
2019-05-23T10:56:08.555Z,18.30
2019-05-23T10:58:38.135Z,18.40
2019-05-23T11:01:07.798Z,18.50
2019-05-23T11:03:37.523Z,18.50
2019-05-23T11:06:16.202Z,18.60
2019-05-23T11:08:40.054Z,18.60
2019-05-23T11:11:13.942Z,18.60
2019-05-23T11:13:41.451Z,18.70
2019-05-23T11:16:11.317Z,18.70
2019-05-23T11:18:40.986Z,18.60
2019-05-23T11:21:10.552Z,18.60
2019-05-23T11:23:44.218Z,18.80
2019-05-23T11:26:14.107Z,18.80
2019-05-23T11:28:44.164Z,18.80
2019-05-23T11:31:13.767Z,18.90
2019-05-23T11:33:43.170Z,18.90
2019-05-23T11:36:13.729Z,19.00
2019-05-23T11:38:43.262Z,19.00
2019-05-23T11:41:13.020Z,19.10
2019-05-23T11:43:43.004Z,19.20
2019-05-23T11:46:19.284Z,19.30
2019-05-23T11:48:49.269Z,19.30
2019-05-23T11:51:19.412Z,19.30
2019-05-23T11:54:06.034Z,19.30
2019-05-23T11:56:20.757Z,19.20
2019-05-23T11:58:50.559Z,19.20
2019-05-23T12:01:42.500Z,19.30
2019-05-23T12:04:20.484Z,19.20
2019-05-23T12:06:56.464Z,19.40
2019-05-23T12:09:26.803Z,19.40
2019-05-23T12:11:57.069Z,19.40
2019-05-23T12:14:26.683Z,19.30
2019-05-23T12:16:57.540Z,19.40
2019-05-23T12:19:27.934Z,19.50
2019-05-23T12:21:57.481Z,19.60
2019-05-23T12:24:26.936Z,19.70
2019-05-23T12:26:56.504Z,19.70
2019-05-23T12:29:26.069Z,19.80
2019-05-23T12:31:56.208Z,19.90
2019-05-23T12:34:26.022Z,19.90
2019-05-23T12:37:17.292Z,20.00
2019-05-23T12:39:27.812Z,20.10
2019-05-23T12:41:57.364Z,20.10
2019-05-23T12:44:26.920Z,20.00
2019-05-23T12:46:56.370Z,20.00
2019-05-23T12:49:31.182Z,20.00
2019-05-23T12:52:01.135Z,19.90
2019-05-23T12:54:31.200Z,19.90
2019-05-23T12:57:00.545Z,19.90
2019-05-23T12:59:30.290Z,20.00
2019-05-23T13:02:01.735Z,20.10
2019-05-23T13:04:31.552Z,20.20
2019-05-23T13:07:01.153Z,20.20
2019-05-23T13:09:30.690Z,20.20
2019-05-23T13:12:00.121Z,20.20
2019-05-23T13:14:30.722Z,20.30
2019-05-23T13:17:01.630Z,20.30
2019-05-23T13:19:31.863Z,20.40
2019-05-23T13:22:02.144Z,20.40
2019-05-23T13:24:50.644Z,20.50
2019-05-23T13:27:04.668Z,20.50
2019-05-23T13:29:34.607Z,20.60
2019-05-23T13:32:05.306Z,20.60
2019-05-23T13:34:35.545Z,20.70
2019-05-23T13:37:07.003Z,20.70
2019-05-23T13:39:37.208Z,20.80
2019-05-23T13:42:07.212Z,20.80
2019-05-23T13:44:36.718Z,20.80
2019-05-23T13:47:06.246Z,20.80
2019-05-23T13:49:35.970Z,20.70
2019-05-23T13:52:05.758Z,20.60
2019-05-23T13:54:36.383Z,20.60
2019-05-23T13:57:08.040Z,20.80
2019-05-23T13:59:38.384Z,20.90
2019-05-23T14:02:10.218Z,20.90
2019-05-23T14:04:41.291Z,20.80
2019-05-23T14:07:12.150Z,20.90
2019-05-23T14:09:41.708Z,21.00
2019-05-23T14:12:26.520Z,21.10
2019-05-23T14:14:42.812Z,21.20
2019-05-23T14:17:29.813Z,21.30
2019-05-23T14:19:59.527Z,21.30
2019-05-23T14:22:32.610Z,21.30
2019-05-23T14:25:02.534Z,21.20
2019-05-23T14:27:51.229Z,21.20
2019-05-23T14:30:36.195Z,21.20
2019-05-23T14:33:10.450Z,21.30
2019-05-23T14:35:41.123Z,21.40
2019-05-23T14:38:29.198Z,21.40
2019-05-23T14:40:44.549Z,21.50
2019-05-23T14:43:21.403Z,21.60
2019-05-23T14:45:57.863Z,21.60
2019-05-23T14:49:03.386Z,21.70
2019-05-23T14:51:52.064Z,21.70
2019-05-23T14:54:37.159Z,21.80
2019-05-23T14:57:07.928Z,21.80
2019-05-23T14:59:38.119Z,21.80
2019-05-23T15:02:12.399Z,21.80
2019-05-23T15:04:42.162Z,21.70
2019-05-23T15:07:11.956Z,21.70
2019-05-23T15:09:41.733Z,21.70
2019-05-23T15:12:11.597Z,21.70
2019-05-23T15:14:42.257Z,21.60
2019-05-23T15:17:12.170Z,21.60
2019-05-23T15:19:45.228Z,21.70
2019-05-23T15:22:14.281Z,21.70
2019-05-23T15:24:44.130Z,21.80
2019-05-23T15:27:13.593Z,21.80
2019-05-23T15:29:43.636Z,21.90
2019-05-23T15:32:13.305Z,21.90
2019-05-23T15:34:42.819Z,21.90
2019-05-23T15:37:12.520Z,21.90
2019-05-23T15:39:43.645Z,21.90
2019-05-23T15:42:13.281Z,22.10
2019-05-23T15:44:42.990Z,22.20
2019-05-23T15:47:12.668Z,22.30
2019-05-23T15:49:44.564Z,22.40
2019-05-23T15:52:37.731Z,22.50
2019-05-23T15:55:29.461Z,22.50
2019-05-23T15:58:06.085Z,22.50
2019-05-23T16:00:54.984Z,22.30
2019-05-23T16:03:35.296Z,22.30
2019-05-23T16:06:07.052Z,22.50
2019-05-23T16:08:38.274Z,22.50
2019-05-23T16:11:07.928Z,22.40
2019-05-23T16:13:37.414Z,22.30
2019-05-23T16:16:07.642Z,22.20
2019-05-23T16:18:37.825Z,22.10
2019-05-23T16:21:07.887Z,22.10
2019-05-23T16:23:37.835Z,22.10
2019-05-23T16:26:09.379Z,22.00
2019-05-23T16:28:38.518Z,21.90
2019-05-23T16:31:08.269Z,21.90
2019-05-23T16:33:38.441Z,21.90
2019-05-23T16:36:08.524Z,21.90
2019-05-23T16:38:38.005Z,22.00
2019-05-23T16:41:11.640Z,22.10
2019-05-23T16:43:41.007Z,22.30
2019-05-23T16:46:10.816Z,22.30
2019-05-23T16:48:40.542Z,22.20
2019-05-23T16:51:10.400Z,22.20
2019-05-23T16:53:40.791Z,22.10
2019-05-23T16:56:18.083Z,22.00
2019-05-23T16:59:18.827Z,21.90
2019-05-23T17:02:16.419Z,21.80
2019-05-23T17:05:08.430Z,21.70
2019-05-23T17:07:37.076Z,21.70
2019-05-23T17:10:26.024Z,21.90
2019-05-23T17:13:04.108Z,22.00
2019-05-23T17:16:11.459Z,22.10
2019-05-23T17:18:50.125Z,22.30
2019-05-23T17:21:31.054Z,22.30
2019-05-23T17:24:06.611Z,22.30
2019-05-23T17:27:13.894Z,22.30
2019-05-23T17:29:50.534Z,22.20
2019-05-23T17:32:25.077Z,22.10
2019-05-23T17:34:54.601Z,22.00
2019-05-23T17:37:25.145Z,22.00
2019-05-23T17:39:55.789Z,22.00
2019-05-23T17:42:25.579Z,21.90
2019-05-23T17:44:55.045Z,22.00
2019-05-23T17:47:25.067Z,21.90
2019-05-23T17:49:55.096Z,22.00
2019-05-23T17:52:25.051Z,22.00
2019-05-23T17:54:54.970Z,22.00
2019-05-23T17:57:25.195Z,22.00
2019-05-23T17:59:54.962Z,22.00
2019-05-23T18:02:24.701Z,22.00
2019-05-23T18:04:54.826Z,21.90
2019-05-23T18:07:25.442Z,21.80
2019-05-23T18:09:56.817Z,21.80
2019-05-23T18:12:26.838Z,21.90
2019-05-23T18:14:56.568Z,22.00
2019-05-23T18:17:28.432Z,22.10
2019-05-23T18:19:58.313Z,22.40
2019-05-23T18:22:28.730Z,22.80
2019-05-23T18:25:00.008Z,23.00
2019-05-23T18:27:30.119Z,22.90
2019-05-23T18:30:00.341Z,22.70
2019-05-23T18:32:30.511Z,22.50
2019-05-23T18:35:00.710Z,22.30
2019-05-23T18:37:31.017Z,22.20
2019-05-23T18:40:00.580Z,22.10
2019-05-23T18:42:31.615Z,21.90
2019-05-23T18:45:01.866Z,21.80
2019-05-23T18:47:38.816Z,21.60
2019-05-23T18:50:10.260Z,21.40
2019-05-23T18:52:39.987Z,20.50
2019-05-23T18:55:10.037Z,21.00
2019-05-23T18:57:39.813Z,21.00
2019-05-23T19:00:11.368Z,20.90
2019-05-23T19:02:41.105Z,20.80
2019-05-23T19:05:11.932Z,20.70
2019-05-23T19:07:41.920Z,20.60
2019-05-23T19:10:12.582Z,20.50
2019-05-23T19:12:43.330Z,20.40
2019-05-23T19:15:13.690Z,20.30
2019-05-23T19:17:43.617Z,20.20
2019-05-23T19:20:14.793Z,20.20
2019-05-23T19:22:44.645Z,20.30
2019-05-23T19:25:14.132Z,20.40
2019-05-23T19:27:44.086Z,20.40
2019-05-23T19:30:33.238Z,20.40
2019-05-23T19:33:03.119Z,20.30
2019-05-23T19:35:32.890Z,20.30
2019-05-23T19:38:03.247Z,20.20
2019-05-23T19:40:33.463Z,20.20
2019-05-23T19:43:02.955Z,20.20
2019-05-23T19:45:32.836Z,20.20
2019-05-23T19:48:02.662Z,20.10
2019-05-23T19:50:32.944Z,20.10
2019-05-23T19:53:02.770Z,19.90
2019-05-23T19:55:32.682Z,19.80
2019-05-23T19:58:02.802Z,19.60
2019-05-23T20:00:34.186Z,19.60
2019-05-23T20:03:04.673Z,19.30
2019-05-23T20:05:36.663Z,19.40
2019-05-23T20:08:06.837Z,19.40
2019-05-23T20:10:37.473Z,19.40
2019-05-23T20:13:07.449Z,19.40
2019-05-23T20:15:37.835Z,19.40
2019-05-23T20:18:08.403Z,19.40
2019-05-23T20:20:39.357Z,19.40
2019-05-23T20:23:15.481Z,19.40
2019-05-23T20:25:43.533Z,19.30
2019-05-23T20:28:13.893Z,19.10
2019-05-23T20:30:56.759Z,19.00
2019-05-23T20:33:26.843Z,19.00
2019-05-23T20:35:56.616Z,18.90
2019-05-23T20:38:27.080Z,19.00
2019-05-23T20:40:57.350Z,18.90
2019-05-23T20:43:27.198Z,19.00
2019-05-23T20:45:56.737Z,18.80
2019-05-23T20:48:26.805Z,18.50
2019-05-23T20:50:56.447Z,18.50
2019-05-23T20:53:26.567Z,18.50
2019-05-23T20:55:56.278Z,18.60
2019-05-23T20:58:26.004Z,18.50
2019-05-23T21:01:07.579Z,18.40
2019-05-23T21:03:37.494Z,18.40
2019-05-23T21:06:07.772Z,18.30
2019-05-23T21:08:37.783Z,18.30
2019-05-23T21:11:07.393Z,18.30
2019-05-23T21:13:37.299Z,18.30
2019-05-23T21:16:07.339Z,18.30
2019-05-23T21:18:36.983Z,18.30
2019-05-23T21:21:07.214Z,18.30
2019-05-23T21:23:37.097Z,18.20
2019-05-23T21:26:07.249Z,18.10
2019-05-23T21:28:37.259Z,17.90
2019-05-23T21:31:19.887Z,18.00
2019-05-23T21:33:49.715Z,17.90
2019-05-23T21:36:19.312Z,17.90
2019-05-23T21:38:48.854Z,18.00
2019-05-23T21:41:18.700Z,17.90
2019-05-23T21:43:49.615Z,17.80
2019-05-23T21:46:19.446Z,17.70
2019-05-23T21:48:48.891Z,17.60
2019-05-23T21:51:18.670Z,17.50
2019-05-23T21:53:48.284Z,17.30
2019-05-23T21:56:17.929Z,17.40
2019-05-23T21:58:47.722Z,17.40
2019-05-23T22:01:40.373Z,17.30
2019-05-23T22:04:28.956Z,17.30
2019-05-23T22:07:00.851Z,17.20
2019-05-23T22:09:31.122Z,17.10
2019-05-23T22:12:01.568Z,17.10
2019-05-23T22:14:33.178Z,17.00
2019-05-23T22:17:02.782Z,16.90
2019-05-23T22:19:33.580Z,16.80
2019-05-23T22:22:04.119Z,16.80
2019-05-23T22:24:33.583Z,16.70
2019-05-23T22:27:03.172Z,16.70
2019-05-23T22:29:33.015Z,16.70
2019-05-23T22:32:04.385Z,16.60
2019-05-23T22:34:44.711Z,16.40
2019-05-23T22:37:32.840Z,16.40
2019-05-23T22:40:02.313Z,16.50
2019-05-23T22:42:32.120Z,16.50
2019-05-23T22:45:03.404Z,16.40
2019-05-23T22:47:33.455Z,16.30
2019-05-23T22:50:03.245Z,16.30
2019-05-23T22:52:33.439Z,16.10
2019-05-23T22:55:03.387Z,16.10
2019-05-23T22:57:32.935Z,16.10
2019-05-23T23:00:02.826Z,16.20
2019-05-23T23:02:32.804Z,16.10
2019-05-23T23:05:02.228Z,16.10
2019-05-23T23:07:32.249Z,16.00
2019-05-23T23:10:01.686Z,16.10
2019-05-23T23:12:31.778Z,16.20
2019-05-23T23:15:01.329Z,16.20
2019-05-23T23:17:31.299Z,16.10
2019-05-23T23:20:02.455Z,16.00
2019-05-23T23:22:31.956Z,15.90
2019-05-23T23:25:01.526Z,16.00
2019-05-23T23:27:30.942Z,16.00
2019-05-23T23:30:00.468Z,16.00
2019-05-23T23:32:29.938Z,15.90
2019-05-23T23:35:00.190Z,15.90
2019-05-23T23:37:30.555Z,15.80
2019-05-23T23:40:00.885Z,15.70
2019-05-23T23:42:30.278Z,15.70
2019-05-23T23:45:17.755Z,15.80
2019-05-23T23:48:05.279Z,15.80
2019-05-23T23:50:52.604Z,15.80
2019-05-23T23:53:39.791Z,15.70
2019-05-23T23:56:26.771Z,15.70
2019-05-23T23:58:55.347Z,15.70
